createdAt,value
2016-04-11T15:20:39.633Z,33.6
2016-04-11T15:21:39.792Z,32.88
2016-04-11T15:22:39.545Z,32.18
2016-04-11T15:23:39.360Z,31.68
2016-04-11T15:24:39.191Z,31.13
2016-04-11T15:25:39.224Z,30.75
2016-04-11T15:26:39.259Z,30.36
2016-04-11T15:27:39.590Z,29.93
2016-04-11T15:28:39.982Z,29.5
2016-04-11T15:29:39.110Z,29.19
2016-04-11T15:31:39.069Z,28.38
2016-04-11T15:32:39.259Z,28.03
2016-04-11T15:33:39.496Z,27.8
2016-04-11T15:34:39.233Z,27.64
2016-04-11T15:35:39.080Z,27.41
2016-04-11T15:36:39.176Z,27.09
2016-04-11T15:37:39.178Z,26.92
2016-04-11T15:38:39.150Z,26.59
2016-04-11T15:39:39.278Z,26.4
2016-04-11T15:40:38.890Z,26.27
2016-04-11T15:41:39.518Z,26.21
2016-04-11T15:42:39.130Z,26.11
2016-04-11T15:43:38.914Z,26.06
2016-04-11T15:44:39.058Z,25.97
2016-04-11T15:45:38.153Z,25.91
2016-04-11T15:46:40.328Z,25.74
2016-04-11T15:47:38.940Z,25.69
2016-04-11T15:48:38.990Z,25.57
2016-04-11T15:49:38.945Z,25.46
2016-04-11T15:50:39.214Z,25.16
2016-04-11T15:51:39.419Z,25
2016-04-11T15:52:38.860Z,24.8
2016-04-11T15:53:40.597Z,24.56
2016-04-11T15:54:38.802Z,24.42
2016-04-11T15:55:38.759Z,24.27
2016-04-11T15:56:39.229Z,24.13
2016-04-11T15:57:39.061Z,24.04
2016-04-11T15:58:39.063Z,23.87
2016-04-11T15:59:38.707Z,23.82
2016-04-11T16:00:38.818Z,23.71
2016-04-11T16:01:38.837Z,23.62
2016-04-11T16:02:38.731Z,23.5
2016-04-11T16:03:38.655Z,23.53
2016-04-11T16:04:38.737Z,23.49
2016-04-11T16:05:38.801Z,23.31
2016-04-11T16:06:38.742Z,23.26
2016-04-11T16:07:38.759Z,23.14
2016-04-11T16:08:37.886Z,23.19
2016-04-11T16:09:37.843Z,23.15
2016-04-11T16:10:40.159Z,23.09
2016-04-11T16:11:38.052Z,23.12
2016-04-11T16:12:39.679Z,22.89
2016-04-11T16:13:41.901Z,22.84
2016-04-11T16:14:38.513Z,22.83
2016-04-11T16:15:53.374Z,22.86
2016-04-11T16:16:38.611Z,22.89
2016-04-11T16:18:38.571Z,23.05
2016-04-11T16:20:39.482Z,23.09
2016-04-11T16:21:40.750Z,23.22
2016-04-11T16:22:38.519Z,23.39
2016-04-11T16:23:38.709Z,23.45
2016-04-11T16:24:38.446Z,23.61
2016-04-11T16:25:41.433Z,23.52
2016-04-11T16:26:52.029Z,23.7
2016-04-11T16:27:39.157Z,23.7
2016-04-11T16:28:38.190Z,23.75
2016-04-11T16:29:39.272Z,23.7
2016-04-11T16:30:38.337Z,23.75
2016-04-11T16:31:39.059Z,23.77
2016-04-11T16:32:38.624Z,23.83
2016-04-11T16:33:38.282Z,23.85
2016-04-11T16:34:51.864Z,23.85
2016-04-11T16:35:39.100Z,23.92
2016-04-11T16:36:38.009Z,24.16
2016-04-11T16:37:41.512Z,24.19
2016-04-11T16:38:41.125Z,24.39
2016-04-11T16:39:38.533Z,24.42
2016-04-11T16:40:37.973Z,24.5
2016-04-11T16:41:51.758Z,24.56
2016-04-11T16:42:38.010Z,24.59
2016-04-11T16:43:38.122Z,24.53
2016-04-11T16:44:44.500Z,24.47
2016-04-11T16:45:41.425Z,24.35
2016-04-11T16:46:51.728Z,24.37
2016-04-11T16:47:41.777Z,24.29
2016-04-11T16:48:41.296Z,24.27
2016-04-11T16:49:52.329Z,24.27
2016-04-11T16:50:38.113Z,24.29
2016-04-11T16:51:38.209Z,24.17
2016-04-11T16:52:38.010Z,23.92
2016-04-11T16:53:37.934Z,23.87
2016-04-11T16:54:38.687Z,23.72
2016-04-11T16:55:37.799Z,23.6
2016-04-11T16:56:38.395Z,23.35
2016-04-11T16:57:39.758Z,23.15
2016-04-11T16:58:38.025Z,23.07
2016-04-11T16:59:37.716Z,22.84
2016-04-11T17:00:51.906Z,22.64
2016-04-11T17:01:38.315Z,22.57
2016-04-11T17:03:38.289Z,22.35
2016-04-11T17:04:37.713Z,22.14
2016-04-11T17:05:38.435Z,22.02
2016-04-11T17:06:37.735Z,21.82
2016-04-11T17:08:37.896Z,21.6
2016-04-11T17:09:38.446Z,21.57
2016-04-11T17:10:37.761Z,21.39
2016-04-11T17:11:37.670Z,21.29
2016-04-11T17:12:37.532Z,21.19
2016-04-11T17:13:37.691Z,21.04
2016-04-11T17:14:37.365Z,20.95
2016-04-11T17:15:37.493Z,20.86
2016-04-11T17:16:37.418Z,20.84
2016-04-11T17:17:38.076Z,20.76
2016-04-11T17:18:37.501Z,20.71
2016-04-11T17:19:37.332Z,20.61
2016-04-11T17:20:36.537Z,20.54
2016-04-11T17:21:37.385Z,20.54
2016-04-11T17:22:37.247Z,20.39
2016-04-11T17:23:37.405Z,20.27
2016-04-11T17:24:51.064Z,20.15
2016-04-11T17:25:37.238Z,20.21
2016-04-11T17:26:37.350Z,20.08
2016-04-11T17:27:37.275Z,20.08
2016-04-11T17:28:37.122Z,19.88
2016-04-11T17:29:37.219Z,19.91
2016-04-11T17:30:38.268Z,19.87
2016-04-11T17:31:37.239Z,19.78
2016-04-11T17:32:37.289Z,19.73
2016-04-11T17:33:37.791Z,19.73
2016-04-11T17:34:37.075Z,19.6
2016-04-11T17:35:37.485Z,19.58
2016-04-11T17:36:37.269Z,19.57
2016-04-11T17:37:37.224Z,19.54
2016-04-11T17:38:36.915Z,19.36
2016-04-11T17:39:36.963Z,19.46
2016-04-11T17:40:37.107Z,19.36
2016-04-11T17:41:50.751Z,19.39
2016-04-11T17:42:40.096Z,19.28
2016-04-11T17:43:37.366Z,19.32
2016-04-11T17:44:36.852Z,19.15
2016-04-11T17:45:38.120Z,19.17
2016-04-11T17:46:37.014Z,19.23
2016-04-11T17:47:36.923Z,19.14
2016-04-11T17:48:36.832Z,19.02
2016-04-11T17:49:36.787Z,18.97
2016-04-11T17:50:36.885Z,18.94
2016-04-11T17:51:37.356Z,18.94
2016-04-11T17:52:37.155Z,18.94
2016-04-11T17:53:36.314Z,18.91
2016-04-11T17:54:36.863Z,18.77
2016-04-11T17:55:50.445Z,18.7
2016-04-11T17:56:37.119Z,18.73
2016-04-11T17:57:36.637Z,18.67
2016-04-11T17:58:36.781Z,18.59
2016-04-11T17:59:51.283Z,18.61
2016-04-11T18:00:50.630Z,18.58
2016-04-11T18:01:36.977Z,18.52
2016-04-11T18:02:37.135Z,18.47
2016-04-11T18:03:36.638Z,18.49
2016-04-11T18:05:36.956Z,18.39
2016-04-11T18:06:36.568Z,18.42
2016-04-11T18:07:36.868Z,18.37
2016-04-11T18:08:36.523Z,18.37
2016-04-11T18:09:36.665Z,18.27
2016-04-11T18:10:36.481Z,18.27
2016-04-11T18:11:36.624Z,18.25
2016-04-11T18:12:37.315Z,18.19
2016-04-11T18:13:37.317Z,18.18
2016-04-11T18:14:37.960Z,18.09
2016-04-11T18:15:38.244Z,18.17
2016-04-11T18:16:37.966Z,18.07
2016-04-11T18:17:38.890Z,18.04
2016-04-11T18:18:37.284Z,18.12
2016-04-11T18:19:37.114Z,18.03
2016-04-11T18:20:37.274Z,18.07
2016-04-11T18:21:37.355Z,18.1
2016-04-11T18:22:37.888Z,17.94
2016-04-11T18:23:37.297Z,17.99
2016-04-11T18:24:37.080Z,17.95
2016-04-11T18:25:39.116Z,17.95
2016-04-11T18:26:50.649Z,17.88
2016-04-11T18:27:38.713Z,17.87
2016-04-11T18:28:40.591Z,17.85
2016-04-11T18:29:37.469Z,17.78
2016-04-11T18:30:37.096Z,17.79
2016-04-11T18:31:36.849Z,17.7
2016-04-11T18:32:51.149Z,17.7
2016-04-11T18:33:39.199Z,17.71
2016-04-11T18:34:38.732Z,17.67
2016-04-11T18:35:50.282Z,17.63
2016-04-11T18:36:38.159Z,17.64
2016-04-11T18:38:37.462Z,17.48
2016-04-11T18:39:36.903Z,17.54
2016-04-11T18:40:36.531Z,17.54
2016-04-11T18:41:36.970Z,17.54
2016-04-11T18:42:37.442Z,17.47
2016-04-11T18:43:37.210Z,17.41
2016-04-11T18:44:36.697Z,17.41
2016-04-11T18:45:37.403Z,17.41
2016-04-11T18:46:39.890Z,17.46
2016-04-11T18:47:38.065Z,17.36
2016-04-11T18:48:36.490Z,17.32
2016-04-11T18:49:36.383Z,17.36
2016-04-11T18:50:36.683Z,17.23
2016-04-11T18:51:36.717Z,17.33
2016-04-11T18:52:36.703Z,17.2
2016-04-11T18:53:36.519Z,17.3
2016-04-11T18:54:36.380Z,17.25
2016-04-11T18:55:37.805Z,17.18
2016-04-11T18:56:37.979Z,17.2
2016-04-11T18:57:36.482Z,17.15
2016-04-11T18:58:36.938Z,17.11
2016-04-11T18:59:36.113Z,17.15
2016-04-11T19:00:36.553Z,17.06
2016-04-11T19:01:36.446Z,17.06
2016-04-11T19:02:36.522Z,16.99
2016-04-11T19:03:36.274Z,16.99
2016-04-11T19:04:36.496Z,16.98
2016-04-11T19:05:36.358Z,16.9
2016-04-11T19:06:36.110Z,16.98
2016-04-11T19:08:36.232Z,16.95
2016-04-11T19:09:36.265Z,16.98
2016-04-11T19:10:36.205Z,16.93
2016-04-11T19:11:37.943Z,16.96
2016-04-11T19:12:36.132Z,16.81
2016-04-11T19:13:36.010Z,16.93
2016-04-11T19:14:36.123Z,16.88
2016-04-11T19:15:36.438Z,16.85
2016-04-11T19:16:35.910Z,16.9
2016-04-11T19:17:36.068Z,16.77
2016-04-11T19:18:36.602Z,16.81
2016-04-11T19:19:36.026Z,16.86
2016-04-11T19:20:35.201Z,16.77
2016-04-11T19:22:36.207Z,16.77
2016-04-11T19:23:37.148Z,16.6
2016-04-11T19:24:35.822Z,16.67
2016-04-11T19:25:35.796Z,16.68
2016-04-11T19:26:36.323Z,16.68
2016-04-11T19:27:36.377Z,16.65
2016-04-11T19:28:40.646Z,16.6
2016-04-11T19:29:35.888Z,16.67
2016-04-11T19:30:49.093Z,16.59
2016-04-11T19:31:36.237Z,16.67
2016-04-11T19:32:35.442Z,16.52
2016-04-11T19:33:35.289Z,16.55
2016-04-11T19:34:35.323Z,16.49
2016-04-11T19:35:35.279Z,16.56
2016-04-11T19:36:36.234Z,16.5
2016-04-11T19:37:35.628Z,16.45
2016-04-11T19:38:38.272Z,16.44
2016-04-11T19:39:35.211Z,16.38
2016-04-11T19:40:35.183Z,16.45
2016-04-11T19:41:35.483Z,16.34
2016-04-11T19:42:36.282Z,16.41
2016-04-11T19:43:35.988Z,16.4
2016-04-11T19:44:35.803Z,16.37
2016-04-11T19:45:36.305Z,16.34
2016-04-11T19:46:35.699Z,16.34
2016-04-11T19:47:35.296Z,16.23
2016-04-11T19:48:35.674Z,16.23
2016-04-11T19:49:36.192Z,16.23
2016-04-11T19:50:35.694Z,16.3
2016-04-11T19:51:35.728Z,16.25
2016-04-11T19:52:35.293Z,16.22
2016-04-11T19:53:34.874Z,16.2
2016-04-11T19:54:35.096Z,16.25
2016-04-11T19:55:35.489Z,16.18
2016-04-11T19:56:35.242Z,16.09
2016-04-11T19:57:35.135Z,16.09
2016-04-11T19:58:34.997Z,16.15
2016-04-11T20:00:36.737Z,16.2
2016-04-11T20:01:35.271Z,16.15
2016-04-11T20:02:34.992Z,16.06
2016-04-11T20:03:35.057Z,16.01
2016-04-11T20:04:34.966Z,16.06
2016-04-11T20:05:34.923Z,16.03
2016-04-11T20:06:35.565Z,16.03
2016-04-11T20:07:35.006Z,16.09
2016-04-11T20:08:34.761Z,16.03
2016-04-11T20:09:38.427Z,16
2016-04-11T20:10:35.586Z,15.92
2016-04-11T20:11:34.777Z,15.93
2016-04-11T20:12:34.904Z,15.88
2016-04-11T20:13:38.219Z,15.88
2016-04-11T20:14:34.863Z,15.88
2016-04-11T20:15:35.615Z,15.84
2016-04-11T20:16:35.540Z,15.86
2016-04-11T20:17:35.182Z,15.75
2016-04-11T20:18:47.967Z,15.76
2016-04-11T20:19:34.578Z,15.72
2016-04-11T20:20:34.566Z,15.76
2016-04-11T20:21:34.740Z,15.66
2016-04-11T20:22:34.524Z,15.63
2016-04-11T20:23:34.434Z,15.6
2016-04-11T20:24:34.811Z,15.7
2016-04-11T20:25:34.470Z,15.63
2016-04-11T20:26:35.598Z,15.68
2016-04-11T20:27:33.663Z,15.61
2016-04-11T20:28:34.853Z,15.6
2016-04-11T20:29:47.762Z,15.66
2016-04-11T20:30:35.515Z,15.6
2016-04-11T20:31:34.298Z,15.63
2016-04-11T20:32:33.926Z,15.57
2016-04-11T20:33:35.163Z,15.56
2016-04-11T20:34:47.417Z,15.59
2016-04-11T20:35:33.575Z,15.39
2016-04-11T20:36:36.561Z,15.51
2016-04-11T20:37:33.377Z,15.43
2016-04-11T20:38:33.271Z,15.46
2016-04-11T20:39:33.445Z,15.46
2016-04-11T20:40:35.041Z,15.38
2016-04-11T20:41:33.919Z,15.38
2016-04-11T20:42:33.281Z,15.39
2016-04-11T20:43:33.128Z,15.3
2016-04-11T20:44:33.849Z,15.33
2016-04-11T20:45:32.211Z,15.33
2016-04-11T20:46:33.338Z,15.24
2016-04-11T20:47:33.171Z,15.21
2016-04-11T20:48:34.001Z,15.26
2016-04-11T20:50:34.475Z,15.28
2016-04-11T20:51:33.290Z,15.28
2016-04-11T20:52:31.262Z,15.27
2016-04-11T20:53:33.265Z,15.19
2016-04-11T20:54:33.314Z,15.19
2016-04-11T20:55:32.909Z,15.21
2016-04-11T20:56:33.132Z,15.17
2016-04-11T20:57:32.993Z,15.21
2016-04-11T20:58:47.309Z,15.09
2016-04-11T20:59:32.936Z,15.15
2016-04-11T21:00:32.799Z,15.13
2016-04-11T21:01:34.051Z,15.03
2016-04-11T21:02:32.507Z,15.01
2016-04-11T21:03:33.041Z,15.08
2016-04-11T21:04:32.605Z,15.03
2016-04-11T21:05:34.265Z,15.05
2016-04-11T21:06:34.159Z,15.06
2016-04-11T21:07:33.239Z,15.03
2016-04-11T21:08:34.977Z,14.99
2016-04-11T21:10:47.169Z,15.05
2016-04-11T21:11:33.188Z,15.02
2016-04-11T21:12:33.753Z,15.06
2016-04-11T21:15:33.339Z,14.93
2016-04-11T21:16:32.326Z,14.9
2016-04-11T21:17:32.937Z,14.93
2016-04-11T21:20:35.305Z,14.83
2016-04-11T21:21:46.573Z,14.8
2016-04-11T21:22:32.233Z,14.78
2016-04-11T21:23:32.282Z,14.8
2016-04-11T21:24:32.176Z,14.8
2016-04-11T21:25:32.178Z,14.81
2016-04-11T21:26:32.212Z,14.84
2016-04-11T21:28:32.077Z,14.74
2016-04-11T21:29:32.486Z,14.67
2016-04-11T21:30:32.285Z,14.72
2016-04-11T21:31:32.241Z,14.69
2016-04-11T21:32:33.932Z,14.72
2016-04-11T21:33:31.997Z,14.68
2016-04-11T21:34:31.936Z,14.65
2016-04-11T21:35:31.877Z,14.74
2016-04-11T21:36:31.129Z,14.71
2016-04-11T21:37:31.883Z,14.69
2016-04-11T21:38:31.932Z,14.61
2016-04-11T21:39:45.981Z,14.64
2016-04-11T21:41:33.878Z,14.57
2016-04-11T21:42:31.708Z,14.56
2016-04-11T21:43:31.976Z,14.6
2016-04-11T21:44:31.619Z,14.6
2016-04-11T21:45:32.233Z,14.57
2016-04-11T21:46:31.844Z,14.46
2016-04-11T21:47:31.815Z,14.54
2016-04-11T21:48:31.740Z,14.53
2016-04-11T21:49:31.554Z,14.49
2016-04-11T21:50:31.543Z,14.39
2016-04-11T21:51:31.967Z,14.46
2016-04-11T21:52:31.485Z,14.44
2016-04-11T21:53:31.472Z,14.42
2016-04-11T21:54:31.476Z,14.31
2016-04-11T21:55:31.524Z,14.37
2016-04-11T21:56:31.808Z,14.28
2016-04-11T21:57:31.326Z,14.29
2016-04-11T21:58:30.767Z,14.32
2016-04-11T21:59:31.301Z,14.29
2016-04-11T22:00:31.850Z,14.37
2016-04-11T22:01:31.322Z,14.34
2016-04-11T22:02:31.247Z,14.34
2016-04-11T22:03:31.420Z,14.28
2016-04-11T22:04:45.158Z,14.24
2016-04-11T22:05:31.739Z,14.27
2016-04-11T22:06:31.398Z,14.27
2016-04-11T22:07:31.167Z,14.27
2016-04-11T22:08:31.278Z,14.19
2016-04-11T22:09:30.969Z,14.32
2016-04-11T22:10:32.487Z,14.24
2016-04-11T22:11:31.083Z,14.21
2016-04-11T22:12:32.008Z,14.21
2016-04-11T22:13:31.572Z,14.16
2016-04-11T22:14:30.982Z,14.21
2016-04-11T22:15:30.987Z,14.16
2016-04-11T22:16:30.895Z,14.13
2016-04-11T22:17:31.304Z,14.07
2016-04-11T22:18:31.296Z,14.04
2016-04-11T22:19:30.831Z,14.06
2016-04-11T22:20:30.812Z,14.02
2016-04-11T22:21:31.159Z,14.02
2016-04-11T22:22:30.786Z,14.07
2016-04-11T22:23:30.805Z,14.04
2016-04-11T22:24:31.042Z,14.06
2016-04-11T22:25:31.732Z,13.99
2016-04-11T22:26:31.172Z,13.98
2016-04-11T22:27:30.597Z,14.01
2016-04-11T22:28:30.584Z,13.99
2016-04-11T22:29:30.617Z,13.91
2016-04-11T22:30:30.589Z,13.91
2016-04-11T22:31:30.639Z,13.94
2016-04-11T22:32:30.547Z,13.96
2016-04-11T22:33:30.488Z,13.92
2016-04-11T22:34:30.647Z,13.94
2016-04-11T22:35:30.041Z,13.87
2016-04-11T22:36:31.054Z,13.92
2016-04-11T22:37:30.567Z,13.89
2016-04-11T22:38:31.675Z,13.94
2016-04-11T22:39:31.001Z,13.87
2016-04-11T22:40:44.373Z,13.87
2016-04-11T22:41:30.844Z,13.84
2016-04-11T22:42:30.565Z,13.87
2016-04-11T22:43:30.895Z,13.79
2016-04-11T22:44:30.803Z,13.79
2016-04-11T22:45:30.526Z,13.73
2016-04-11T22:46:30.705Z,13.81
2016-04-11T22:47:30.573Z,13.73
2016-04-11T22:48:30.440Z,13.74
2016-04-11T22:49:30.714Z,13.81
2016-04-11T22:50:31.300Z,13.77
2016-04-11T22:51:31.024Z,13.8
2016-04-11T22:52:30.371Z,13.74
2016-04-11T22:53:30.360Z,13.79
2016-04-11T22:54:32.334Z,13.69
2016-04-11T22:55:30.354Z,13.73
2016-04-11T22:56:30.546Z,13.76
2016-04-11T22:57:30.580Z,13.77
2016-04-11T22:58:30.239Z,13.69
2016-04-11T22:59:29.945Z,13.65
2016-04-11T23:00:30.262Z,13.63
2016-04-11T23:01:30.187Z,13.59
2016-04-11T23:02:30.643Z,13.58
2016-04-11T23:03:30.130Z,13.65
2016-04-11T23:04:30.086Z,13.59
2016-04-11T23:05:30.074Z,13.54
2016-04-11T23:06:30.202Z,13.62
2016-04-11T23:07:30.080Z,13.56
2016-04-11T23:08:30.050Z,13.56
2016-04-11T23:09:30.022Z,13.59
2016-04-11T23:10:30.010Z,13.58
2016-04-11T23:11:29.949Z,13.63
2016-04-11T23:12:29.936Z,13.56
2016-04-11T23:13:29.924Z,13.51
2016-04-11T23:14:30.051Z,13.52
2016-04-11T23:16:30.151Z,13.47
2016-04-11T23:17:30.371Z,13.49
2016-04-11T23:18:29.859Z,13.49
2016-04-11T23:19:29.737Z,13.51
2016-04-11T23:20:29.787Z,13.49
2016-04-11T23:21:30.071Z,13.54
2016-04-11T23:22:29.729Z,13.47
2016-04-11T23:23:29.654Z,13.54
2016-04-11T23:24:29.891Z,13.47
2016-04-11T23:25:29.721Z,13.51
2016-04-11T23:26:29.065Z,13.47
2016-04-11T23:27:29.568Z,13.41
2016-04-11T23:28:29.540Z,13.44
2016-04-11T23:29:29.495Z,13.41
2016-04-11T23:30:29.482Z,13.4
2016-04-11T23:31:29.532Z,13.36
2016-04-11T23:32:29.487Z,13.38
2016-04-11T23:33:29.647Z,13.44
2016-04-11T23:34:30.199Z,13.36
2016-04-11T23:35:29.386Z,13.3
2016-04-11T23:36:29.514Z,13.33
2016-04-11T23:37:29.423Z,13.3
2016-04-11T23:38:29.333Z,13.3
2016-04-11T23:39:29.304Z,13.25
2016-04-11T23:40:29.275Z,13.24
2016-04-11T23:41:29.356Z,13.29
2016-04-11T23:42:29.233Z,13.3
2016-04-11T23:43:28.408Z,13.25
2016-04-11T23:44:29.239Z,13.21
2016-04-11T23:45:29.210Z,13.22
2016-04-11T23:46:29.385Z,13.22
2016-04-11T23:47:29.107Z,13.27
2016-04-11T23:48:29.124Z,13.21
2016-04-11T23:49:29.205Z,13.22
2016-04-11T23:50:29.035Z,13.25
2016-04-11T23:51:29.382Z,13.2
2016-04-11T23:52:29.010Z,13.25
2016-04-11T23:53:28.982Z,13.14
2016-04-11T23:54:29.000Z,13.25
2016-04-11T23:55:28.909Z,13.17
2016-04-11T23:56:28.912Z,13.12
2016-04-11T23:57:28.884Z,13.18
2016-04-11T23:58:28.870Z,13.18
2016-04-11T23:59:28.795Z,13.17
